sensor_id;sensor_type;location;lat;lon;timestamp;temperature;humidity
51902;DHT22;37929;53.218;6.548;2023-10-31T00:00:34;11.30;99.90
51902;DHT22;37929;53.218;6.548;2023-10-31T00:03:00;11.30;99.90
51902;DHT22;37929;53.218;6.548;2023-10-31T00:05:25;11.30;99.90
51902;DHT22;37929;53.218;6.548;2023-10-31T00:07:51;11.30;99.90
51902;DHT22;37929;53.218;6.548;2023-10-31T00:10:17;11.30;99.90
51902;DHT22;37929;53.218;6.548;2023-10-31T00:12:43;11.30;99.90
51902;DHT22;37929;53.218;6.548;2023-10-31T00:15:09;11.30;99.90
51902;DHT22;37929;53.218;6.548;2023-10-31T00:17:34;11.20;99.90
51902;DHT22;37929;53.218;6.548;2023-10-31T00:20:00;11.20;99.90
51902;DHT22;37929;53.218;6.548;2023-10-31T00:22:26;11.20;99.90
51902;DHT22;37929;53.218;6.548;2023-10-31T00:24:51;11.10;99.90
51902;DHT22;37929;53.218;6.548;2023-10-31T00:27:17;11.10;99.90
51902;DHT22;37929;53.218;6.548;2023-10-31T00:29:43;11.10;99.90
51902;DHT22;37929;53.218;6.548;2023-10-31T00:32:09;11.10;99.90
51902;DHT22;37929;53.218;6.548;2023-10-31T00:34:34;11.10;99.90
51902;DHT22;37929;53.218;6.548;2023-10-31T00:37:00;11.10;99.90
51902;DHT22;37929;53.218;6.548;2023-10-31T00:39:25;11.00;99.90
51902;DHT22;37929;53.218;6.548;2023-10-31T00:41:51;11.20;99.90
51902;DHT22;37929;53.218;6.548;2023-10-31T00:44:17;11.00;99.90
51902;DHT22;37929;53.218;6.548;2023-10-31T00:46:43;11.00;99.90
51902;DHT22;37929;53.218;6.548;2023-10-31T00:49:09;11.00;99.90
51902;DHT22;37929;53.218;6.548;2023-10-31T00:51:34;11.00;99.90
51902;DHT22;37929;53.218;6.548;2023-10-31T00:54:00;11.00;99.90
51902;DHT22;37929;53.218;6.548;2023-10-31T00:56:26;10.90;99.90
51902;DHT22;37929;53.218;6.548;2023-10-31T00:58:52;10.90;99.90
51902;DHT22;37929;53.218;6.548;2023-10-31T01:01:17;10.90;99.90
51902;DHT22;37929;53.218;6.548;2023-10-31T01:03:43;10.90;99.90
51902;DHT22;37929;53.218;6.548;2023-10-31T01:06:09;10.90;99.90
51902;DHT22;37929;53.218;6.548;2023-10-31T01:08:35;10.80;99.90
51902;DHT22;37929;53.218;6.548;2023-10-31T01:11:01;10.80;99.90
51902;DHT22;37929;53.218;6.548;2023-10-31T01:13:27;10.80;99.90
51902;DHT22;37929;53.218;6.548;2023-10-31T01:15:52;10.80;99.90
51902;DHT22;37929;53.218;6.548;2023-10-31T01:18:18;10.80;99.90
51902;DHT22;37929;53.218;6.548;2023-10-31T01:20:44;10.70;99.90
51902;DHT22;37929;53.218;6.548;2023-10-31T01:23:09;10.70;99.90
51902;DHT22;37929;53.218;6.548;2023-10-31T01:25:35;10.70;99.90
51902;DHT22;37929;53.218;6.548;2023-10-31T01:28:01;10.60;99.90
51902;DHT22;37929;53.218;6.548;2023-10-31T01:30:26;10.60;99.90
51902;DHT22;37929;53.218;6.548;2023-10-31T01:32:52;10.60;99.90
51902;DHT22;37929;53.218;6.548;2023-10-31T01:35:18;10.60;99.90
51902;DHT22;37929;53.218;6.548;2023-10-31T01:37:43;10.60;99.90
51902;DHT22;37929;53.218;6.548;2023-10-31T01:40:13;10.60;99.90
51902;DHT22;37929;53.218;6.548;2023-10-31T01:42:38;10.60;99.90
51902;DHT22;37929;53.218;6.548;2023-10-31T01:45:05;10.50;99.90
51902;DHT22;37929;53.218;6.548;2023-10-31T01:47:32;10.50;99.90
51902;DHT22;37929;53.218;6.548;2023-10-31T01:49:58;10.50;99.90
51902;DHT22;37929;53.218;6.548;2023-10-31T01:52:25;10.50;99.90
51902;DHT22;37929;53.218;6.548;2023-10-31T01:54:51;10.50;99.90
51902;DHT22;37929;53.218;6.548;2023-10-31T01:57:19;10.50;99.90
51902;DHT22;37929;53.218;6.548;2023-10-31T01:59:46;10.50;99.90
51902;DHT22;37929;53.218;6.548;2023-10-31T02:02:12;10.40;99.90
51902;DHT22;37929;53.218;6.548;2023-10-31T02:04:38;10.50;99.90
51902;DHT22;37929;53.218;6.548;2023-10-31T02:07:04;10.40;99.90
51902;DHT22;37929;53.218;6.548;2023-10-31T02:09:29;10.40;99.90
51902;DHT22;37929;53.218;6.548;2023-10-31T02:11:56;10.40;99.90
51902;DHT22;37929;53.218;6.548;2023-10-31T02:14:23;10.40;99.90
51902;DHT22;37929;53.218;6.548;2023-10-31T02:16:48;10.40;99.90
51902;DHT22;37929;53.218;6.548;2023-10-31T02:19:17;10.30;99.90
51902;DHT22;37929;53.218;6.548;2023-10-31T02:21:44;10.30;99.90
51902;DHT22;37929;53.218;6.548;2023-10-31T02:24:10;10.30;99.90
51902;DHT22;37929;53.218;6.548;2023-10-31T02:26:35;10.30;99.90
51902;DHT22;37929;53.218;6.548;2023-10-31T02:29:02;10.30;99.90
51902;DHT22;37929;53.218;6.548;2023-10-31T02:31:28;10.30;99.90
51902;DHT22;37929;53.218;6.548;2023-10-31T02:33:54;10.30;99.90
51902;DHT22;37929;53.218;6.548;2023-10-31T02:36:20;10.30;99.90
51902;DHT22;37929;53.218;6.548;2023-10-31T02:38:46;10.30;99.90
51902;DHT22;37929;53.218;6.548;2023-10-31T02:41:12;10.20;99.90
51902;DHT22;37929;53.218;6.548;2023-10-31T02:43:38;10.20;99.90
51902;DHT22;37929;53.218;6.548;2023-10-31T02:46:05;10.20;99.90
51902;DHT22;37929;53.218;6.548;2023-10-31T02:48:30;10.20;99.90
51902;DHT22;37929;53.218;6.548;2023-10-31T02:51:05;10.30;99.90
51902;DHT22;37929;53.218;6.548;2023-10-31T02:53:31;10.20;99.90
51902;DHT22;37929;53.218;6.548;2023-10-31T02:55:56;10.20;99.90
51902;DHT22;37929;53.218;6.548;2023-10-31T02:58:22;10.30;99.90
51902;DHT22;37929;53.218;6.548;2023-10-31T03:00:49;10.20;99.90
51902;DHT22;37929;53.218;6.548;2023-10-31T03:03:14;10.20;99.90
51902;DHT22;37929;53.218;6.548;2023-10-31T03:05:40;10.20;99.90
51902;DHT22;37929;53.218;6.548;2023-10-31T03:08:06;10.20;99.90
51902;DHT22;37929;53.218;6.548;2023-10-31T03:10:33;10.20;99.90
51902;DHT22;37929;53.218;6.548;2023-10-31T03:12:59;10.20;99.90
51902;DHT22;37929;53.218;6.548;2023-10-31T03:15:25;10.20;99.90
51902;DHT22;37929;53.218;6.548;2023-10-31T03:17:50;10.20;99.90
51902;DHT22;37929;53.218;6.548;2023-10-31T03:20:16;10.40;99.90
51902;DHT22;37929;53.218;6.548;2023-10-31T03:22:42;10.20;99.90
51902;DHT22;37929;53.218;6.548;2023-10-31T03:25:08;10.10;99.90
51902;DHT22;37929;53.218;6.548;2023-10-31T03:27:33;10.10;99.90
51902;DHT22;37929;53.218;6.548;2023-10-31T03:29:59;10.10;99.90
51902;DHT22;37929;53.218;6.548;2023-10-31T03:32:25;10.10;99.90
51902;DHT22;37929;53.218;6.548;2023-10-31T03:34:51;10.10;99.90
51902;DHT22;37929;53.218;6.548;2023-10-31T03:37:16;10.10;99.90
51902;DHT22;37929;53.218;6.548;2023-10-31T03:39:42;10.10;99.90
51902;DHT22;37929;53.218;6.548;2023-10-31T03:42:08;10.10;99.90
51902;DHT22;37929;53.218;6.548;2023-10-31T03:44:33;10.10;99.90
51902;DHT22;37929;53.218;6.548;2023-10-31T03:46:59;10.10;99.90
51902;DHT22;37929;53.218;6.548;2023-10-31T03:49:25;10.10;99.90
51902;DHT22;37929;53.218;6.548;2023-10-31T03:51:51;10.10;99.90
51902;DHT22;37929;53.218;6.548;2023-10-31T03:54:17;10.10;99.90
51902;DHT22;37929;53.218;6.548;2023-10-31T03:56:43;10.10;99.90
51902;DHT22;37929;53.218;6.548;2023-10-31T03:59:09;10.10;99.90
51902;DHT22;37929;53.218;6.548;2023-10-31T04:01:35;10.10;99.90
51902;DHT22;37929;53.218;6.548;2023-10-31T04:04:01;10.60;99.90
51902;DHT22;37929;53.218;6.548;2023-10-31T04:06:28;10.20;99.90
51902;DHT22;37929;53.218;6.548;2023-10-31T04:08:54;10.20;99.90
51902;DHT22;37929;53.218;6.548;2023-10-31T04:11:20;10.20;99.90
51902;DHT22;37929;53.218;6.548;2023-10-31T04:13:45;10.20;99.90
51902;DHT22;37929;53.218;6.548;2023-10-31T04:16:11;10.20;99.90
51902;DHT22;37929;53.218;6.548;2023-10-31T04:18:37;10.20;99.90
51902;DHT22;37929;53.218;6.548;2023-10-31T04:21:03;10.40;99.90
51902;DHT22;37929;53.218;6.548;2023-10-31T04:23:29;10.30;99.90
51902;DHT22;37929;53.218;6.548;2023-10-31T04:25:54;11.20;99.90
51902;DHT22;37929;53.218;6.548;2023-10-31T04:28:20;10.20;99.90
51902;DHT22;37929;53.218;6.548;2023-10-31T04:30:46;10.20;99.90
51902;DHT22;37929;53.218;6.548;2023-10-31T04:33:11;10.20;99.90
51902;DHT22;37929;53.218;6.548;2023-10-31T04:35:37;10.20;99.90
51902;DHT22;37929;53.218;6.548;2023-10-31T04:38:03;10.30;99.90
51902;DHT22;37929;53.218;6.548;2023-10-31T04:40:29;10.30;99.90
51902;DHT22;37929;53.218;6.548;2023-10-31T04:42:54;10.30;99.90
51902;DHT22;37929;53.218;6.548;2023-10-31T04:45:20;10.30;99.90
51902;DHT22;37929;53.218;6.548;2023-10-31T04:47:46;10.30;99.90
51902;DHT22;37929;53.218;6.548;2023-10-31T04:50:11;10.30;99.90
51902;DHT22;37929;53.218;6.548;2023-10-31T04:52:37;10.30;99.90
51902;DHT22;37929;53.218;6.548;2023-10-31T04:55:03;10.20;99.90
51902;DHT22;37929;53.218;6.548;2023-10-31T04:57:29;10.30;99.90
51902;DHT22;37929;53.218;6.548;2023-10-31T04:59:54;10.30;99.90
51902;DHT22;37929;53.218;6.548;2023-10-31T05:02:22;10.30;99.90
51902;DHT22;37929;53.218;6.548;2023-10-31T05:04:48;10.20;99.90
51902;DHT22;37929;53.218;6.548;2023-10-31T05:07:19;10.20;99.90
51902;DHT22;37929;53.218;6.548;2023-10-31T05:09:45;10.20;99.90
51902;DHT22;37929;53.218;6.548;2023-10-31T05:12:11;10.20;99.90
51902;DHT22;37929;53.218;6.548;2023-10-31T05:14:37;10.20;99.90
51902;DHT22;37929;53.218;6.548;2023-10-31T05:17:02;10.20;99.90
51902;DHT22;37929;53.218;6.548;2023-10-31T05:19:29;10.20;99.90
51902;DHT22;37929;53.218;6.548;2023-10-31T05:21:55;10.20;99.90
51902;DHT22;37929;53.218;6.548;2023-10-31T05:24:20;10.20;99.90
51902;DHT22;37929;53.218;6.548;2023-10-31T05:26:46;10.20;99.90
51902;DHT22;37929;53.218;6.548;2023-10-31T05:29:12;10.20;99.90
51902;DHT22;37929;53.218;6.548;2023-10-31T05:31:38;11.00;99.90
51902;DHT22;37929;53.218;6.548;2023-10-31T05:34:04;10.20;99.90
51902;DHT22;37929;53.218;6.548;2023-10-31T05:36:29;10.20;99.90
51902;DHT22;37929;53.218;6.548;2023-10-31T05:38:55;10.20;99.90
51902;DHT22;37929;53.218;6.548;2023-10-31T05:41:21;10.10;99.90
51902;DHT22;37929;53.218;6.548;2023-10-31T05:43:47;10.10;99.90
51902;DHT22;37929;53.218;6.548;2023-10-31T05:46:13;10.10;99.90
51902;DHT22;37929;53.218;6.548;2023-10-31T05:48:41;10.10;99.90
51902;DHT22;37929;53.218;6.548;2023-10-31T05:51:14;10.10;99.90
51902;DHT22;37929;53.218;6.548;2023-10-31T05:53:41;10.10;99.90
51902;DHT22;37929;53.218;6.548;2023-10-31T05:56:08;10.10;99.90
51902;DHT22;37929;53.218;6.548;2023-10-31T05:58:33;10.10;99.90
51902;DHT22;37929;53.218;6.548;2023-10-31T06:00:59;10.10;99.90
51902;DHT22;37929;53.218;6.548;2023-10-31T06:03:25;10.10;99.90
51902;DHT22;37929;53.218;6.548;2023-10-31T06:05:51;10.10;99.90
51902;DHT22;37929;53.218;6.548;2023-10-31T06:08:16;10.10;99.90
51902;DHT22;37929;53.218;6.548;2023-10-31T06:10:42;10.10;99.90
51902;DHT22;37929;53.218;6.548;2023-10-31T06:13:08;10.10;99.90
51902;DHT22;37929;53.218;6.548;2023-10-31T06:15:33;10.00;99.90
51902;DHT22;37929;53.218;6.548;2023-10-31T06:17:59;10.10;99.90
51902;DHT22;37929;53.218;6.548;2023-10-31T06:20:25;10.10;99.90
51902;DHT22;37929;53.218;6.548;2023-10-31T06:22:51;10.10;99.90
51902;DHT22;37929;53.218;6.548;2023-10-31T06:25:17;10.10;99.90
51902;DHT22;37929;53.218;6.548;2023-10-31T06:27:42;10.10;99.90
51902;DHT22;37929;53.218;6.548;2023-10-31T06:30:09;10.10;99.90
51902;DHT22;37929;53.218;6.548;2023-10-31T06:32:35;10.10;99.90
51902;DHT22;37929;53.218;6.548;2023-10-31T06:35:01;10.10;99.90
51902;DHT22;37929;53.218;6.548;2023-10-31T06:37:26;10.20;99.90
51902;DHT22;37929;53.218;6.548;2023-10-31T06:39:52;10.10;99.90
51902;DHT22;37929;53.218;6.548;2023-10-31T06:42:18;10.20;99.90
51902;DHT22;37929;53.218;6.548;2023-10-31T06:44:43;10.20;99.90
51902;DHT22;37929;53.218;6.548;2023-10-31T06:47:09;10.20;99.90
51902;DHT22;37929;53.218;6.548;2023-10-31T06:49:35;10.30;99.90
51902;DHT22;37929;53.218;6.548;2023-10-31T06:52:02;10.30;99.90
51902;DHT22;37929;53.218;6.548;2023-10-31T06:54:28;10.30;99.90
51902;DHT22;37929;53.218;6.548;2023-10-31T06:56:54;10.30;99.90
51902;DHT22;37929;53.218;6.548;2023-10-31T06:59:20;10.30;99.90
51902;DHT22;37929;53.218;6.548;2023-10-31T07:01:46;10.30;99.90
51902;DHT22;37929;53.218;6.548;2023-10-31T07:04:12;10.30;99.90
51902;DHT22;37929;53.218;6.548;2023-10-31T07:06:37;10.30;99.90
51902;DHT22;37929;53.218;6.548;2023-10-31T07:09:03;10.30;99.90
51902;DHT22;37929;53.218;6.548;2023-10-31T07:11:31;10.30;99.90
51902;DHT22;37929;53.218;6.548;2023-10-31T07:14:01;10.30;99.90
51902;DHT22;37929;53.218;6.548;2023-10-31T07:16:28;10.30;99.90
51902;DHT22;37929;53.218;6.548;2023-10-31T07:18:54;10.30;99.90
51902;DHT22;37929;53.218;6.548;2023-10-31T07:21:19;10.30;99.90
51902;DHT22;37929;53.218;6.548;2023-10-31T07:23:45;10.30;99.90
51902;DHT22;37929;53.218;6.548;2023-10-31T07:26:11;10.30;99.90
51902;DHT22;37929;53.218;6.548;2023-10-31T07:28:37;10.30;99.90
51902;DHT22;37929;53.218;6.548;2023-10-31T07:31:04;10.30;99.90
51902;DHT22;37929;53.218;6.548;2023-10-31T07:33:30;10.30;99.90
51902;DHT22;37929;53.218;6.548;2023-10-31T07:35:56;10.30;99.90
51902;DHT22;37929;53.218;6.548;2023-10-31T07:38:21;10.30;99.90
51902;DHT22;37929;53.218;6.548;2023-10-31T07:40:47;10.40;99.90
51902;DHT22;37929;53.218;6.548;2023-10-31T07:43:15;10.40;99.90
51902;DHT22;37929;53.218;6.548;2023-10-31T07:45:40;10.40;99.90
51902;DHT22;37929;53.218;6.548;2023-10-31T07:48:08;10.40;99.90
51902;DHT22;37929;53.218;6.548;2023-10-31T07:50:34;11.10;99.90
51902;DHT22;37929;53.218;6.548;2023-10-31T07:52:59;10.50;99.90
51902;DHT22;37929;53.218;6.548;2023-10-31T07:55:25;10.50;99.90
51902;DHT22;37929;53.218;6.548;2023-10-31T07:57:51;10.50;99.90
51902;DHT22;37929;53.218;6.548;2023-10-31T08:00:17;10.50;99.90
51902;DHT22;37929;53.218;6.548;2023-10-31T08:02:42;10.60;99.90
51902;DHT22;37929;53.218;6.548;2023-10-31T08:05:10;10.50;99.90
51902;DHT22;37929;53.218;6.548;2023-10-31T08:07:36;10.60;99.90
51902;DHT22;37929;53.218;6.548;2023-10-31T08:10:02;10.60;99.90
51902;DHT22;37929;53.218;6.548;2023-10-31T08:12:29;10.60;99.90
51902;DHT22;37929;53.218;6.548;2023-10-31T08:14:55;10.70;99.90
51902;DHT22;37929;53.218;6.548;2023-10-31T08:17:21;10.70;99.90
51902;DHT22;37929;53.218;6.548;2023-10-31T08:19:46;10.80;99.90
51902;DHT22;37929;53.218;6.548;2023-10-31T08:22:13;10.80;99.90
51902;DHT22;37929;53.218;6.548;2023-10-31T08:24:39;10.90;99.90
51902;DHT22;37929;53.218;6.548;2023-10-31T08:27:05;10.90;99.90
51902;DHT22;37929;53.218;6.548;2023-10-31T08:29:31;10.90;99.90
51902;DHT22;37929;53.218;6.548;2023-10-31T08:31:57;10.90;99.90
51902;DHT22;37929;53.218;6.548;2023-10-31T08:34:23;11.00;99.90
51902;DHT22;37929;53.218;6.548;2023-10-31T08:36:49;11.00;99.90
51902;DHT22;37929;53.218;6.548;2023-10-31T08:39:15;11.00;99.90
51902;DHT22;37929;53.218;6.548;2023-10-31T08:41:54;11.00;99.90
51902;DHT22;37929;53.218;6.548;2023-10-31T08:44:27;11.10;99.90
51902;DHT22;37929;53.218;6.548;2023-10-31T08:46:53;11.10;99.90
51902;DHT22;37929;53.218;6.548;2023-10-31T08:49:19;10.80;99.90
51902;DHT22;37929;53.218;6.548;2023-10-31T08:51:45;11.30;99.90
51902;DHT22;37929;53.218;6.548;2023-10-31T08:54:11;11.30;99.90
51902;DHT22;37929;53.218;6.548;2023-10-31T08:56:37;11.30;99.90
51902;DHT22;37929;53.218;6.548;2023-10-31T08:59:03;11.40;99.90
51902;DHT22;37929;53.218;6.548;2023-10-31T09:01:29;11.40;99.90
51902;DHT22;37929;53.218;6.548;2023-10-31T09:03:55;11.40;99.90
51902;DHT22;37929;53.218;6.548;2023-10-31T09:06:21;11.40;99.90
51902;DHT22;37929;53.218;6.548;2023-10-31T09:08:46;11.40;99.90
51902;DHT22;37929;53.218;6.548;2023-10-31T09:11:12;11.40;99.90
51902;DHT22;37929;53.218;6.548;2023-10-31T09:13:38;11.40;99.90
51902;DHT22;37929;53.218;6.548;2023-10-31T09:16:04;11.30;99.90
51902;DHT22;37929;53.218;6.548;2023-10-31T09:18:30;11.30;99.90
51902;DHT22;37929;53.218;6.548;2023-10-31T09:20:55;11.20;99.90
51902;DHT22;37929;53.218;6.548;2023-10-31T09:23:21;11.20;99.90
51902;DHT22;37929;53.218;6.548;2023-10-31T09:25:47;11.20;99.90
51902;DHT22;37929;53.218;6.548;2023-10-31T09:28:12;11.10;99.90
51902;DHT22;37929;53.218;6.548;2023-10-31T09:30:38;11.10;99.90
51902;DHT22;37929;53.218;6.548;2023-10-31T09:33:04;11.10;99.90
51902;DHT22;37929;53.218;6.548;2023-10-31T09:35:29;11.20;99.90
51902;DHT22;37929;53.218;6.548;2023-10-31T09:37:55;11.00;99.90
51902;DHT22;37929;53.218;6.548;2023-10-31T09:40:21;11.00;99.90
51902;DHT22;37929;53.218;6.548;2023-10-31T09:42:47;11.00;99.90
51902;DHT22;37929;53.218;6.548;2023-10-31T09:45:13;11.00;99.90
51902;DHT22;37929;53.218;6.548;2023-10-31T09:47:40;10.90;99.90
51902;DHT22;37929;53.218;6.548;2023-10-31T09:50:07;11.00;99.90
51902;DHT22;37929;53.218;6.548;2023-10-31T09:52:38;11.00;99.90
51902;DHT22;37929;53.218;6.548;2023-10-31T09:55:05;11.00;99.90
51902;DHT22;37929;53.218;6.548;2023-10-31T09:57:32;11.00;99.90
51902;DHT22;37929;53.218;6.548;2023-10-31T09:59:58;11.10;99.90
51902;DHT22;37929;53.218;6.548;2023-10-31T10:02:24;11.10;99.90
51902;DHT22;37929;53.218;6.548;2023-10-31T10:04:51;11.10;99.90
51902;DHT22;37929;53.218;6.548;2023-10-31T10:07:17;11.10;99.90
51902;DHT22;37929;53.218;6.548;2023-10-31T10:09:44;11.10;99.90
51902;DHT22;37929;53.218;6.548;2023-10-31T10:12:12;11.20;99.90
51902;DHT22;37929;53.218;6.548;2023-10-31T10:14:39;11.20;99.90
51902;DHT22;37929;53.218;6.548;2023-10-31T10:17:24;11.20;99.90
51902;DHT22;37929;53.218;6.548;2023-10-31T10:20:07;11.20;99.90
51902;DHT22;37929;53.218;6.548;2023-10-31T10:22:40;11.20;99.90
51902;DHT22;37929;53.218;6.548;2023-10-31T10:25:08;11.30;99.90
51902;DHT22;37929;53.218;6.548;2023-10-31T10:27:34;11.30;99.90
51902;DHT22;37929;53.218;6.548;2023-10-31T10:30:02;11.30;99.90
51902;DHT22;37929;53.218;6.548;2023-10-31T10:32:29;11.40;99.90
51902;DHT22;37929;53.218;6.548;2023-10-31T10:34:55;11.40;99.90
51902;DHT22;37929;53.218;6.548;2023-10-31T10:37:21;11.40;99.90
51902;DHT22;37929;53.218;6.548;2023-10-31T10:39:51;11.40;99.90
51902;DHT22;37929;53.218;6.548;2023-10-31T10:42:33;11.40;99.90
51902;DHT22;37929;53.218;6.548;2023-10-31T10:45:04;11.40;99.90
51902;DHT22;37929;53.218;6.548;2023-10-31T10:47:34;11.40;99.90
51902;DHT22;37929;53.218;6.548;2023-10-31T10:50:02;11.40;99.90
51902;DHT22;37929;53.218;6.548;2023-10-31T10:52:55;11.40;99.90
51902;DHT22;37929;53.218;6.548;2023-10-31T10:55:26;11.50;99.90
51902;DHT22;37929;53.218;6.548;2023-10-31T10:58:03;11.40;99.90
51902;DHT22;37929;53.218;6.548;2023-10-31T11:00:31;11.50;99.90
51902;DHT22;37929;53.218;6.548;2023-10-31T11:02:57;11.40;99.90
51902;DHT22;37929;53.218;6.548;2023-10-31T11:05:24;11.50;99.90
51902;DHT22;37929;53.218;6.548;2023-10-31T11:07:51;11.50;99.90
51902;DHT22;37929;53.218;6.548;2023-10-31T11:10:18;11.50;99.90
51902;DHT22;37929;53.218;6.548;2023-10-31T11:12:44;11.60;99.90
51902;DHT22;37929;53.218;6.548;2023-10-31T11:15:12;11.60;99.90
51902;DHT22;37929;53.218;6.548;2023-10-31T11:17:41;11.70;99.90
51902;DHT22;37929;53.218;6.548;2023-10-31T11:20:10;12.00;99.90
51902;DHT22;37929;53.218;6.548;2023-10-31T11:22:44;11.70;99.90
51902;DHT22;37929;53.218;6.548;2023-10-31T11:25:14;11.80;99.90
51902;DHT22;37929;53.218;6.548;2023-10-31T11:27:40;11.80;99.90
51902;DHT22;37929;53.218;6.548;2023-10-31T11:30:19;11.70;99.90
51902;DHT22;37929;53.218;6.548;2023-10-31T11:32:51;11.70;99.90
51902;DHT22;37929;53.218;6.548;2023-10-31T11:35:17;11.70;99.90
51902;DHT22;37929;53.218;6.548;2023-10-31T11:37:47;11.80;99.90
51902;DHT22;37929;53.218;6.548;2023-10-31T11:42:44;11.80;99.90
51902;DHT22;37929;53.218;6.548;2023-10-31T11:45:12;11.80;99.90
51902;DHT22;37929;53.218;6.548;2023-10-31T11:47:51;11.80;99.90
51902;DHT22;37929;53.218;6.548;2023-10-31T11:50:17;11.80;99.90
51902;DHT22;37929;53.218;6.548;2023-10-31T11:52:43;11.80;99.90
51902;DHT22;37929;53.218;6.548;2023-10-31T11:55:12;11.80;99.90
51902;DHT22;37929;53.218;6.548;2023-10-31T11:57:39;11.80;99.90
51902;DHT22;37929;53.218;6.548;2023-10-31T12:00:06;11.80;99.90
51902;DHT22;37929;53.218;6.548;2023-10-31T12:02:33;11.80;99.90
51902;DHT22;37929;53.218;6.548;2023-10-31T12:05:12;11.80;99.90
51902;DHT22;37929;53.218;6.548;2023-10-31T12:07:45;11.70;99.90
51902;DHT22;37929;53.218;6.548;2023-10-31T12:10:12;11.70;99.90
51902;DHT22;37929;53.218;6.548;2023-10-31T12:12:38;11.70;99.90
51902;DHT22;37929;53.218;6.548;2023-10-31T12:15:10;11.70;99.90
51902;DHT22;37929;53.218;6.548;2023-10-31T12:17:36;11.70;99.90
51902;DHT22;37929;53.218;6.548;2023-10-31T12:20:06;11.60;99.90
51902;DHT22;37929;53.218;6.548;2023-10-31T12:22:33;11.70;99.90
51902;DHT22;37929;53.218;6.548;2023-10-31T12:25:06;11.60;99.90
51902;DHT22;37929;53.218;6.548;2023-10-31T12:27:49;11.60;99.90
51902;DHT22;37929;53.218;6.548;2023-10-31T12:30:17;11.60;99.90
51902;DHT22;37929;53.218;6.548;2023-10-31T12:32:43;11.60;99.90
51902;DHT22;37929;53.218;6.548;2023-10-31T12:35:15;11.60;99.90
51902;DHT22;37929;53.218;6.548;2023-10-31T12:37:49;11.60;99.90
51902;DHT22;37929;53.218;6.548;2023-10-31T12:40:17;11.60;99.90
51902;DHT22;37929;53.218;6.548;2023-10-31T12:42:44;11.60;99.90
51902;DHT22;37929;53.218;6.548;2023-10-31T12:45:11;11.50;99.90
51902;DHT22;37929;53.218;6.548;2023-10-31T12:47:37;11.60;99.90
51902;DHT22;37929;53.218;6.548;2023-10-31T12:50:14;11.50;99.90
51902;DHT22;37929;53.218;6.548;2023-10-31T12:52:47;11.50;99.90
51902;DHT22;37929;53.218;6.548;2023-10-31T12:55:15;11.50;99.90
51902;DHT22;37929;53.218;6.548;2023-10-31T12:57:41;11.50;99.90
51902;DHT22;37929;53.218;6.548;2023-10-31T13:00:07;11.40;99.90
51902;DHT22;37929;53.218;6.548;2023-10-31T13:02:36;11.40;99.90
51902;DHT22;37929;53.218;6.548;2023-10-31T13:05:15;11.40;99.90
51902;DHT22;37929;53.218;6.548;2023-10-31T13:07:51;11.40;99.90
51902;DHT22;37929;53.218;6.548;2023-10-31T13:10:18;11.40;99.90
51902;DHT22;37929;53.218;6.548;2023-10-31T13:12:48;11.40;99.90
51902;DHT22;37929;53.218;6.548;2023-10-31T13:15:16;11.30;99.90
51902;DHT22;37929;53.218;6.548;2023-10-31T13:17:42;11.30;99.90
51902;DHT22;37929;53.218;6.548;2023-10-31T13:20:12;11.30;99.90
51902;DHT22;37929;53.218;6.548;2023-10-31T13:22:40;11.30;99.90
51902;DHT22;37929;53.218;6.548;2023-10-31T13:25:10;11.20;99.90
51902;DHT22;37929;53.218;6.548;2023-10-31T13:27:40;11.20;99.90
51902;DHT22;37929;53.218;6.548;2023-10-31T13:30:13;11.20;99.90
51902;DHT22;37929;53.218;6.548;2023-10-31T13:32:42;11.20;99.90
51902;DHT22;37929;53.218;6.548;2023-10-31T13:35:09;11.20;99.90
51902;DHT22;37929;53.218;6.548;2023-10-31T13:37:39;11.20;99.90
51902;DHT22;37929;53.218;6.548;2023-10-31T13:40:06;11.20;99.90
51902;DHT22;37929;53.218;6.548;2023-10-31T13:42:34;11.30;99.90
51902;DHT22;37929;53.218;6.548;2023-10-31T13:45:03;11.30;99.90
51902;DHT22;37929;53.218;6.548;2023-10-31T13:47:29;11.30;99.90
51902;DHT22;37929;53.218;6.548;2023-10-31T13:49:55;11.20;99.90
51902;DHT22;37929;53.218;6.548;2023-10-31T13:52:21;11.30;99.90
51902;DHT22;37929;53.218;6.548;2023-10-31T13:54:47;11.30;99.90
51902;DHT22;37929;53.218;6.548;2023-10-31T13:57:13;11.30;99.90
51902;DHT22;37929;53.218;6.548;2023-10-31T13:59:40;11.30;99.90
51902;DHT22;37929;53.218;6.548;2023-10-31T14:02:05;11.30;99.90
51902;DHT22;37929;53.218;6.548;2023-10-31T14:04:31;11.40;99.90
51902;DHT22;37929;53.218;6.548;2023-10-31T14:06:57;11.40;99.90
51902;DHT22;37929;53.218;6.548;2023-10-31T14:09:24;11.50;99.90
51902;DHT22;37929;53.218;6.548;2023-10-31T14:11:50;11.50;99.90
51902;DHT22;37929;53.218;6.548;2023-10-31T14:14:15;11.50;99.90
51902;DHT22;37929;53.218;6.548;2023-10-31T14:16:44;11.50;99.90
51902;DHT22;37929;53.218;6.548;2023-10-31T14:19:10;11.50;99.90
51902;DHT22;37929;53.218;6.548;2023-10-31T14:21:36;11.60;99.90
51902;DHT22;37929;53.218;6.548;2023-10-31T14:24:03;11.50;99.90
51902;DHT22;37929;53.218;6.548;2023-10-31T14:26:29;11.50;99.90
51902;DHT22;37929;53.218;6.548;2023-10-31T14:28:59;11.60;99.90
51902;DHT22;37929;53.218;6.548;2023-10-31T14:31:26;11.50;99.90
51902;DHT22;37929;53.218;6.548;2023-10-31T14:33:52;11.50;99.90
51902;DHT22;37929;53.218;6.548;2023-10-31T14:36:17;11.50;99.90
51902;DHT22;37929;53.218;6.548;2023-10-31T14:38:43;11.50;99.90
51902;DHT22;37929;53.218;6.548;2023-10-31T14:41:09;11.50;99.90
51902;DHT22;37929;53.218;6.548;2023-10-31T14:43:35;11.50;99.90
51902;DHT22;37929;53.218;6.548;2023-10-31T14:46:01;11.50;99.90
51902;DHT22;37929;53.218;6.548;2023-10-31T14:48:27;11.50;99.90
51902;DHT22;37929;53.218;6.548;2023-10-31T14:50:54;11.40;99.90
51902;DHT22;37929;53.218;6.548;2023-10-31T14:53:22;11.40;99.90
51902;DHT22;37929;53.218;6.548;2023-10-31T14:55:48;11.30;99.90
51902;DHT22;37929;53.218;6.548;2023-10-31T14:58:14;11.30;99.90
51902;DHT22;37929;53.218;6.548;2023-10-31T15:00:40;11.30;99.90
51902;DHT22;37929;53.218;6.548;2023-10-31T15:03:06;11.30;99.90
51902;DHT22;37929;53.218;6.548;2023-10-31T15:05:32;11.30;99.90
51902;DHT22;37929;53.218;6.548;2023-10-31T15:07:59;11.30;99.90
51902;DHT22;37929;53.218;6.548;2023-10-31T15:10:25;11.30;99.90
51902;DHT22;37929;53.218;6.548;2023-10-31T15:12:53;11.30;99.90
51902;DHT22;37929;53.218;6.548;2023-10-31T15:15:19;11.30;99.90
51902;DHT22;37929;53.218;6.548;2023-10-31T15:17:45;11.30;99.90
51902;DHT22;37929;53.218;6.548;2023-10-31T15:20:11;11.20;99.90
51902;DHT22;37929;53.218;6.548;2023-10-31T15:22:40;11.20;99.90
51902;DHT22;37929;53.218;6.548;2023-10-31T15:25:08;11.20;99.90
51902;DHT22;37929;53.218;6.548;2023-10-31T15:27:34;11.20;99.90
51902;DHT22;37929;53.218;6.548;2023-10-31T15:29:59;11.20;99.90